sensor_id;sensor_type;location;lat;lon;timestamp;P1;durP1;ratioP1;P2;durP2;ratioP2
8102;SDS011;4094;49.948;11.574;2022-10-18T00:01:17;11.13;;;10.03;;
8102;SDS011;4094;49.948;11.574;2022-10-18T00:03:48;10.23;;;9.20;;
8102;SDS011;4094;49.948;11.574;2022-10-18T00:06:18;10.80;;;9.83;;
8102;SDS011;4094;49.948;11.574;2022-10-18T00:08:47;10.57;;;9.57;;
8102;SDS011;4094;49.948;11.574;2022-10-18T00:11:15;10.67;;;9.67;;
8102;SDS011;4094;49.948;11.574;2022-10-18T00:13:44;13.30;;;9.80;;
8102;SDS011;4094;49.948;11.574;2022-10-18T00:16:14;13.37;;;10.37;;
8102;SDS011;4094;49.948;11.574;2022-10-18T00:18:44;13.07;;;10.67;;
8102;SDS011;4094;49.948;11.574;2022-10-18T00:21:14;14.90;;;11.43;;
8102;SDS011;4094;49.948;11.574;2022-10-18T00:23:46;20.40;;;14.80;;
8102;SDS011;4094;49.948;11.574;2022-10-18T00:26:17;22.00;;;14.83;;
8102;SDS011;4094;49.948;11.574;2022-10-18T00:28:49;19.00;;;13.67;;
8102;SDS011;4094;49.948;11.574;2022-10-18T00:31:21;16.07;;;12.13;;
8102;SDS011;4094;49.948;11.574;2022-10-18T00:33:52;11.83;;;10.53;;
8102;SDS011;4094;49.948;11.574;2022-10-18T00:36:22;14.17;;;10.23;;
8102;SDS011;4094;49.948;11.574;2022-10-18T00:38:53;15.40;;;11.07;;
8102;SDS011;4094;49.948;11.574;2022-10-18T00:41:24;12.03;;;10.97;;
8102;SDS011;4094;49.948;11.574;2022-10-18T00:43:55;11.70;;;10.60;;
8102;SDS011;4094;49.948;11.574;2022-10-18T00:46:27;12.03;;;10.73;;
8102;SDS011;4094;49.948;11.574;2022-10-18T00:48:57;12.97;;;10.63;;
8102;SDS011;4094;49.948;11.574;2022-10-18T00:51:29;10.90;;;9.90;;
8102;SDS011;4094;49.948;11.574;2022-10-18T00:54:02;11.53;;;10.43;;
8102;SDS011;4094;49.948;11.574;2022-10-18T00:56:32;11.20;;;10.10;;
8102;SDS011;4094;49.948;11.574;2022-10-18T00:59:02;11.43;;;10.43;;
8102;SDS011;4094;49.948;11.574;2022-10-18T01:01:31;12.07;;;10.77;;
8102;SDS011;4094;49.948;11.574;2022-10-18T01:04:00;11.77;;;10.57;;
8102;SDS011;4094;49.948;11.574;2022-10-18T01:06:29;12.03;;;9.77;;
8102;SDS011;4094;49.948;11.574;2022-10-18T01:09:04;10.70;;;9.70;;
8102;SDS011;4094;49.948;11.574;2022-10-18T01:11:51;11.00;;;9.33;;
8102;SDS011;4094;49.948;11.574;2022-10-18T01:14:33;10.67;;;9.67;;
8102;SDS011;4094;49.948;11.574;2022-10-18T01:17:08;10.50;;;9.40;;
8102;SDS011;4094;49.948;11.574;2022-10-18T01:22:42;10.90;;;9.13;;
8102;SDS011;4094;49.948;11.574;2022-10-18T01:25:18;10.40;;;9.07;;
8102;SDS011;4094;49.948;11.574;2022-10-18T01:27:56;10.67;;;9.50;;
8102;SDS011;4094;49.948;11.574;2022-10-18T01:33:24;10.90;;;9.87;;
8102;SDS011;4094;49.948;11.574;2022-10-18T01:35:59;10.43;;;9.33;;
8102;SDS011;4094;49.948;11.574;2022-10-18T01:38:33;9.57;;;8.67;;
8102;SDS011;4094;49.948;11.574;2022-10-18T01:41:04;9.60;;;8.60;;
8102;SDS011;4094;49.948;11.574;2022-10-18T01:43:42;12.73;;;9.63;;
8102;SDS011;4094;49.948;11.574;2022-10-18T01:46:17;10.10;;;8.93;;
8102;SDS011;4094;49.948;11.574;2022-10-18T01:48:51;9.70;;;8.80;;
8102;SDS011;4094;49.948;11.574;2022-10-18T01:51:22;9.60;;;8.67;;
8102;SDS011;4094;49.948;11.574;2022-10-18T01:53:52;9.90;;;8.83;;
8102;SDS011;4094;49.948;11.574;2022-10-18T01:56:23;10.07;;;8.80;;
8102;SDS011;4094;49.948;11.574;2022-10-18T01:59:06;11.97;;;9.37;;
8102;SDS011;4094;49.948;11.574;2022-10-18T02:01:51;9.93;;;8.97;;
8102;SDS011;4094;49.948;11.574;2022-10-18T02:04:29;9.50;;;8.70;;
8102;SDS011;4094;49.948;11.574;2022-10-18T02:07:05;10.17;;;9.20;;
8102;SDS011;4094;49.948;11.574;2022-10-18T02:09:41;10.67;;;9.20;;
8102;SDS011;4094;49.948;11.574;2022-10-18T02:12:16;9.73;;;8.73;;
8102;SDS011;4094;49.948;11.574;2022-10-18T02:14:48;11.23;;;9.33;;
8102;SDS011;4094;49.948;11.574;2022-10-18T02:17:19;10.27;;;9.20;;
8102;SDS011;4094;49.948;11.574;2022-10-18T02:19:51;9.87;;;8.87;;
8102;SDS011;4094;49.948;11.574;2022-10-18T02:22:23;10.20;;;9.10;;
8102;SDS011;4094;49.948;11.574;2022-10-18T02:24:55;10.47;;;9.00;;
8102;SDS011;4094;49.948;11.574;2022-10-18T02:27:29;11.70;;;8.60;;
8102;SDS011;4094;49.948;11.574;2022-10-18T02:29:57;10.17;;;9.27;;
8102;SDS011;4094;49.948;11.574;2022-10-18T02:32:29;10.00;;;9.00;;
8102;SDS011;4094;49.948;11.574;2022-10-18T02:35:02;10.00;;;9.10;;
8102;SDS011;4094;49.948;11.574;2022-10-18T02:37:36;10.03;;;9.13;;
8102;SDS011;4094;49.948;11.574;2022-10-18T02:40:06;9.57;;;8.67;;
8102;SDS011;4094;49.948;11.574;2022-10-18T02:42:37;10.73;;;9.73;;
8102;SDS011;4094;49.948;11.574;2022-10-18T02:45:11;10.17;;;9.27;;
8102;SDS011;4094;49.948;11.574;2022-10-18T02:47:42;10.10;;;9.20;;
8102;SDS011;4094;49.948;11.574;2022-10-18T02:50:11;10.00;;;9.10;;
8102;SDS011;4094;49.948;11.574;2022-10-18T02:52:40;10.10;;;9.20;;
8102;SDS011;4094;49.948;11.574;2022-10-18T02:55:10;10.50;;;9.70;;
8102;SDS011;4094;49.948;11.574;2022-10-18T02:57:39;10.60;;;9.63;;
8102;SDS011;4094;49.948;11.574;2022-10-18T03:00:08;9.70;;;8.90;;
8102;SDS011;4094;49.948;11.574;2022-10-18T03:02:38;12.17;;;9.33;;
8102;SDS011;4094;49.948;11.574;2022-10-18T03:05:08;10.03;;;9.13;;
8102;SDS011;4094;49.948;11.574;2022-10-18T03:07:37;10.10;;;9.13;;
8102;SDS011;4094;49.948;11.574;2022-10-18T03:10:07;10.03;;;9.20;;
8102;SDS011;4094;49.948;11.574;2022-10-18T03:12:36;9.83;;;8.93;;
8102;SDS011;4094;49.948;11.574;2022-10-18T03:15:06;9.47;;;8.77;;
8102;SDS011;4094;49.948;11.574;2022-10-18T03:17:35;9.60;;;8.90;;
8102;SDS011;4094;49.948;11.574;2022-10-18T03:20:04;9.60;;;8.83;;
8102;SDS011;4094;49.948;11.574;2022-10-18T03:22:35;10.43;;;9.30;;
8102;SDS011;4094;49.948;11.574;2022-10-18T03:25:05;10.47;;;9.47;;
8102;SDS011;4094;49.948;11.574;2022-10-18T03:27:34;9.97;;;9.07;;
8102;SDS011;4094;49.948;11.574;2022-10-18T03:30:03;8.70;;;8.10;;
8102;SDS011;4094;49.948;11.574;2022-10-18T03:32:32;9.40;;;8.63;;
8102;SDS011;4094;49.948;11.574;2022-10-18T03:35:01;9.23;;;8.53;;
8102;SDS011;4094;49.948;11.574;2022-10-18T03:37:31;9.17;;;8.47;;
8102;SDS011;4094;49.948;11.574;2022-10-18T03:40:01;9.33;;;8.53;;
8102;SDS011;4094;49.948;11.574;2022-10-18T03:42:30;9.50;;;8.60;;
8102;SDS011;4094;49.948;11.574;2022-10-18T03:45:00;9.13;;;8.43;;
8102;SDS011;4094;49.948;11.574;2022-10-18T03:47:29;9.50;;;8.90;;
8102;SDS011;4094;49.948;11.574;2022-10-18T03:49:58;9.47;;;8.77;;
8102;SDS011;4094;49.948;11.574;2022-10-18T03:52:27;8.93;;;8.23;;
8102;SDS011;4094;49.948;11.574;2022-10-18T03:54:57;8.50;;;7.90;;
8102;SDS011;4094;49.948;11.574;2022-10-18T03:57:27;9.10;;;8.40;;
8102;SDS011;4094;49.948;11.574;2022-10-18T03:59:56;9.10;;;8.40;;
8102;SDS011;4094;49.948;11.574;2022-10-18T04:02:25;9.90;;;9.00;;
8102;SDS011;4094;49.948;11.574;2022-10-18T04:04:54;9.40;;;8.70;;
8102;SDS011;4094;49.948;11.574;2022-10-18T04:07:25;9.17;;;8.43;;
8102;SDS011;4094;49.948;11.574;2022-10-18T04:09:54;9.70;;;8.90;;
8102;SDS011;4094;49.948;11.574;2022-10-18T04:12:23;9.03;;;8.43;;
8102;SDS011;4094;49.948;11.574;2022-10-18T04:14:53;10.27;;;9.47;;
8102;SDS011;4094;49.948;11.574;2022-10-18T04:17:22;9.10;;;8.30;;
8102;SDS011;4094;49.948;11.574;2022-10-18T04:19:52;8.67;;;7.90;;
8102;SDS011;4094;49.948;11.574;2022-10-18T04:22:21;9.53;;;8.80;;
8102;SDS011;4094;49.948;11.574;2022-10-18T04:24:50;9.50;;;8.80;;
8102;SDS011;4094;49.948;11.574;2022-10-18T04:27:20;9.30;;;8.60;;
8102;SDS011;4094;49.948;11.574;2022-10-18T04:29:48;8.37;;;7.57;;
8102;SDS011;4094;49.948;11.574;2022-10-18T04:32:19;8.70;;;8.00;;
8102;SDS011;4094;49.948;11.574;2022-10-18T04:34:48;9.70;;;8.73;;
8102;SDS011;4094;49.948;11.574;2022-10-18T04:37:17;9.83;;;8.93;;
8102;SDS011;4094;49.948;11.574;2022-10-18T04:39:46;10.47;;;9.37;;
8102;SDS011;4094;49.948;11.574;2022-10-18T04:42:20;10.60;;;9.77;;
8102;SDS011;4094;49.948;11.574;2022-10-18T04:44:49;11.60;;;10.50;;
8102;SDS011;4094;49.948;11.574;2022-10-18T04:47:19;12.50;;;11.33;;
8102;SDS011;4094;49.948;11.574;2022-10-18T04:49:48;12.30;;;11.20;;
8102;SDS011;4094;49.948;11.574;2022-10-18T04:52:17;12.50;;;11.30;;
8102;SDS011;4094;49.948;11.574;2022-10-18T04:54:46;12.43;;;11.23;;
8102;SDS011;4094;49.948;11.574;2022-10-18T04:57:15;12.93;;;11.73;;
8102;SDS011;4094;49.948;11.574;2022-10-18T04:59:44;12.63;;;11.63;;
8102;SDS011;4094;49.948;11.574;2022-10-18T05:02:13;12.53;;;11.33;;
8102;SDS011;4094;49.948;11.574;2022-10-18T05:04:44;12.60;;;11.50;;
8102;SDS011;4094;49.948;11.574;2022-10-18T05:07:13;12.63;;;11.47;;
8102;SDS011;4094;49.948;11.574;2022-10-18T05:09:42;12.57;;;11.47;;
8102;SDS011;4094;49.948;11.574;2022-10-18T05:12:11;12.37;;;11.37;;
8102;SDS011;4094;49.948;11.574;2022-10-18T05:14:40;12.77;;;11.57;;
8102;SDS011;4094;49.948;11.574;2022-10-18T05:17:09;15.10;;;10.57;;
8102;SDS011;4094;49.948;11.574;2022-10-18T05:19:38;11.97;;;10.97;;
8102;SDS011;4094;49.948;11.574;2022-10-18T05:22:09;12.27;;;11.17;;
8102;SDS011;4094;49.948;11.574;2022-10-18T05:24:38;11.47;;;10.47;;
8102;SDS011;4094;49.948;11.574;2022-10-18T05:27:07;11.13;;;10.20;;
8102;SDS011;4094;49.948;11.574;2022-10-18T05:29:36;11.97;;;10.87;;
8102;SDS011;4094;49.948;11.574;2022-10-18T05:32:05;12.40;;;11.27;;
8102;SDS011;4094;49.948;11.574;2022-10-18T05:34:34;13.13;;;11.83;;
8102;SDS011;4094;49.948;11.574;2022-10-18T05:37:03;18.47;;;14.97;;
8102;SDS011;4094;49.948;11.574;2022-10-18T05:39:34;25.17;;;17.47;;
8102;SDS011;4094;49.948;11.574;2022-10-18T05:42:04;22.97;;;17.33;;
8102;SDS011;4094;49.948;11.574;2022-10-18T05:44:34;24.10;;;16.20;;
8102;SDS011;4094;49.948;11.574;2022-10-18T05:47:03;19.50;;;15.70;;
8102;SDS011;4094;49.948;11.574;2022-10-18T05:49:32;18.70;;;14.17;;
8102;SDS011;4094;49.948;11.574;2022-10-18T05:52:02;14.20;;;12.87;;
8102;SDS011;4094;49.948;11.574;2022-10-18T05:54:31;13.97;;;12.67;;
8102;SDS011;4094;49.948;11.574;2022-10-18T05:57:02;13.87;;;12.67;;
8102;SDS011;4094;49.948;11.574;2022-10-18T05:59:31;13.30;;;12.00;;
8102;SDS011;4094;49.948;11.574;2022-10-18T06:02:00;13.00;;;11.90;;
8102;SDS011;4094;49.948;11.574;2022-10-18T06:04:29;12.07;;;11.07;;
8102;SDS011;4094;49.948;11.574;2022-10-18T06:06:58;12.80;;;11.70;;
8102;SDS011;4094;49.948;11.574;2022-10-18T06:09:27;12.13;;;11.10;;
8102;SDS011;4094;49.948;11.574;2022-10-18T06:11:56;11.80;;;10.83;;
8102;SDS011;4094;49.948;11.574;2022-10-18T06:14:27;13.03;;;11.83;;
8102;SDS011;4094;49.948;11.574;2022-10-18T06:16:56;12.07;;;11.00;;
8102;SDS011;4094;49.948;11.574;2022-10-18T06:19:25;10.90;;;10.07;;
8102;SDS011;4094;49.948;11.574;2022-10-18T06:21:54;11.80;;;10.80;;
8102;SDS011;4094;49.948;11.574;2022-10-18T06:24:23;11.00;;;10.10;;
8102;SDS011;4094;49.948;11.574;2022-10-18T06:26:52;14.53;;;10.90;;
8102;SDS011;4094;49.948;11.574;2022-10-18T06:29:22;11.40;;;10.40;;
8102;SDS011;4094;49.948;11.574;2022-10-18T06:31:52;11.00;;;10.20;;
8102;SDS011;4094;49.948;11.574;2022-10-18T06:34:21;10.80;;;9.90;;
8102;SDS011;4094;49.948;11.574;2022-10-18T06:36:50;10.27;;;9.47;;
8102;SDS011;4094;49.948;11.574;2022-10-18T06:39:25;11.37;;;10.37;;
8102;SDS011;4094;49.948;11.574;2022-10-18T06:41:54;10.47;;;9.77;;
8102;SDS011;4094;49.948;11.574;2022-10-18T06:44:24;11.67;;;10.67;;
8102;SDS011;4094;49.948;11.574;2022-10-18T06:46:54;11.00;;;10.20;;
8102;SDS011;4094;49.948;11.574;2022-10-18T06:49:23;10.37;;;9.57;;
8102;SDS011;4094;49.948;11.574;2022-10-18T06:51:52;10.17;;;9.37;;
8102;SDS011;4094;49.948;11.574;2022-10-18T06:54:22;10.83;;;10.03;;
8102;SDS011;4094;49.948;11.574;2022-10-18T06:56:54;35.33;;;13.30;;
8102;SDS011;4094;49.948;11.574;2022-10-18T06:59:23;26.50;;;11.80;;
8102;SDS011;4094;49.948;11.574;2022-10-18T07:01:58;12.47;;;9.67;;
8102;SDS011;4094;49.948;11.574;2022-10-18T07:04:28;11.03;;;10.10;;
8102;SDS011;4094;49.948;11.574;2022-10-18T07:06:57;10.53;;;9.53;;
8102;SDS011;4094;49.948;11.574;2022-10-18T07:09:26;11.07;;;9.87;;
8102;SDS011;4094;49.948;11.574;2022-10-18T07:11:55;10.90;;;9.87;;
8102;SDS011;4094;49.948;11.574;2022-10-18T07:14:24;10.40;;;9.60;;
8102;SDS011;4094;49.948;11.574;2022-10-18T07:16:58;10.87;;;10.07;;
8102;SDS011;4094;49.948;11.574;2022-10-18T07:19:27;11.07;;;10.17;;
8102;SDS011;4094;49.948;11.574;2022-10-18T07:21:56;10.47;;;9.23;;
8102;SDS011;4094;49.948;11.574;2022-10-18T07:24:25;9.70;;;9.00;;
8102;SDS011;4094;49.948;11.574;2022-10-18T07:26:54;10.63;;;9.83;;
8102;SDS011;4094;49.948;11.574;2022-10-18T07:29:23;11.50;;;10.50;;
8102;SDS011;4094;49.948;11.574;2022-10-18T07:31:52;11.17;;;10.37;;
8102;SDS011;4094;49.948;11.574;2022-10-18T07:34:23;10.77;;;9.87;;
8102;SDS011;4094;49.948;11.574;2022-10-18T07:36:52;10.10;;;9.30;;
8102;SDS011;4094;49.948;11.574;2022-10-18T07:39:21;10.47;;;9.50;;
8102;SDS011;4094;49.948;11.574;2022-10-18T07:41:50;10.80;;;9.80;;
8102;SDS011;4094;49.948;11.574;2022-10-18T07:44:19;9.73;;;9.03;;
8102;SDS011;4094;49.948;11.574;2022-10-18T07:46:48;9.87;;;8.97;;
8102;SDS011;4094;49.948;11.574;2022-10-18T07:49:17;10.73;;;9.80;;
8102;SDS011;4094;49.948;11.574;2022-10-18T07:51:48;9.77;;;8.97;;
8102;SDS011;4094;49.948;11.574;2022-10-18T07:54:17;10.33;;;9.43;;
8102;SDS011;4094;49.948;11.574;2022-10-18T07:56:46;10.23;;;9.33;;
8102;SDS011;4094;49.948;11.574;2022-10-18T07:59:15;9.97;;;9.07;;
8102;SDS011;4094;49.948;11.574;2022-10-18T08:01:44;10.70;;;9.80;;
8102;SDS011;4094;49.948;11.574;2022-10-18T08:04:13;11.03;;;10.03;;
8102;SDS011;4094;49.948;11.574;2022-10-18T08:06:43;10.97;;;9.97;;
8102;SDS011;4094;49.948;11.574;2022-10-18T08:09:13;10.30;;;9.47;;
8102;SDS011;4094;49.948;11.574;2022-10-18T08:11:43;10.53;;;9.63;;
8102;SDS011;4094;49.948;11.574;2022-10-18T08:14:12;9.93;;;9.13;;
8102;SDS011;4094;49.948;11.574;2022-10-18T08:16:41;10.20;;;9.23;;
8102;SDS011;4094;49.948;11.574;2022-10-18T08:19:10;9.80;;;8.90;;
8102;SDS011;4094;49.948;11.574;2022-10-18T08:21:39;9.37;;;8.57;;
8102;SDS011;4094;49.948;11.574;2022-10-18T08:24:08;9.10;;;8.20;;
8102;SDS011;4094;49.948;11.574;2022-10-18T08:26:38;8.30;;;7.60;;
8102;SDS011;4094;49.948;11.574;2022-10-18T08:29:07;8.57;;;7.87;;
8102;SDS011;4094;49.948;11.574;2022-10-18T08:31:50;9.00;;;8.20;;
8102;SDS011;4094;49.948;11.574;2022-10-18T08:34:19;8.10;;;7.50;;
8102;SDS011;4094;49.948;11.574;2022-10-18T08:36:48;8.57;;;7.87;;
8102;SDS011;4094;49.948;11.574;2022-10-18T08:39:17;9.17;;;8.30;;
8102;SDS011;4094;49.948;11.574;2022-10-18T08:41:53;8.27;;;7.67;;
8102;SDS011;4094;49.948;11.574;2022-10-18T08:44:41;9.00;;;8.17;;
8102;SDS011;4094;49.948;11.574;2022-10-18T08:47:13;8.87;;;8.13;;
8102;SDS011;4094;49.948;11.574;2022-10-18T08:49:45;9.20;;;8.33;;
8102;SDS011;4094;49.948;11.574;2022-10-18T08:52:19;9.20;;;8.50;;
8102;SDS011;4094;49.948;11.574;2022-10-18T08:54:59;9.70;;;7.93;;
8102;SDS011;4094;49.948;11.574;2022-10-18T08:57:31;9.07;;;8.27;;
8102;SDS011;4094;49.948;11.574;2022-10-18T09:00:01;8.90;;;8.20;;
8102;SDS011;4094;49.948;11.574;2022-10-18T09:02:39;9.40;;;8.40;;
8102;SDS011;4094;49.948;11.574;2022-10-18T09:05:19;9.10;;;8.27;;
8102;SDS011;4094;49.948;11.574;2022-10-18T09:08:00;10.87;;;8.70;;
8102;SDS011;4094;49.948;11.574;2022-10-18T09:10:52;8.73;;;7.93;;
8102;SDS011;4094;49.948;11.574;2022-10-18T09:13:40;7.87;;;7.27;;
8102;SDS011;4094;49.948;11.574;2022-10-18T09:16:25;8.40;;;7.53;;
8102;SDS011;4094;49.948;11.574;2022-10-18T09:19:02;11.23;;;7.43;;
8102;SDS011;4094;49.948;11.574;2022-10-18T09:21:39;7.23;;;6.53;;
8102;SDS011;4094;49.948;11.574;2022-10-18T09:24:18;7.57;;;6.87;;
8102;SDS011;4094;49.948;11.574;2022-10-18T09:26:56;6.77;;;6.17;;
8102;SDS011;4094;49.948;11.574;2022-10-18T09:29:33;7.17;;;6.47;;
8102;SDS011;4094;49.948;11.574;2022-10-18T09:32:16;6.70;;;6.20;;
8102;SDS011;4094;49.948;11.574;2022-10-18T09:34:55;6.03;;;5.53;;
8102;SDS011;4094;49.948;11.574;2022-10-18T09:37:26;6.87;;;6.27;;
8102;SDS011;4094;49.948;11.574;2022-10-18T09:39:59;7.33;;;6.07;;
8102;SDS011;4094;49.948;11.574;2022-10-18T09:42:34;6.27;;;5.57;;
8102;SDS011;4094;49.948;11.574;2022-10-18T09:45:12;7.20;;;6.53;;
8102;SDS011;4094;49.948;11.574;2022-10-18T09:47:51;7.97;;;6.73;;
8102;SDS011;4094;49.948;11.574;2022-10-18T09:50:31;6.70;;;6.20;;
8102;SDS011;4094;49.948;11.574;2022-10-18T09:53:05;6.80;;;6.20;;
8102;SDS011;4094;49.948;11.574;2022-10-18T09:55:42;5.47;;;5.07;;
8102;SDS011;4094;49.948;11.574;2022-10-18T09:58:22;5.87;;;5.37;;
8102;SDS011;4094;49.948;11.574;2022-10-18T10:00:55;5.47;;;4.97;;
8102;SDS011;4094;49.948;11.574;2022-10-18T10:03:24;6.93;;;5.33;;
8102;SDS011;4094;49.948;11.574;2022-10-18T10:06:00;5.50;;;5.00;;
8102;SDS011;4094;49.948;11.574;2022-10-18T10:08:42;5.50;;;5.10;;
8102;SDS011;4094;49.948;11.574;2022-10-18T10:11:25;5.63;;;5.13;;
8102;SDS011;4094;49.948;11.574;2022-10-18T10:13:56;5.80;;;5.20;;
8102;SDS011;4094;49.948;11.574;2022-10-18T10:16:27;5.20;;;4.80;;
8102;SDS011;4094;49.948;11.574;2022-10-18T10:18:56;5.77;;;5.07;;
8102;SDS011;4094;49.948;11.574;2022-10-18T10:21:25;5.37;;;4.63;;
8102;SDS011;4094;49.948;11.574;2022-10-18T10:23:54;5.20;;;4.70;;
8102;SDS011;4094;49.948;11.574;2022-10-18T10:26:27;4.80;;;4.40;;
8102;SDS011;4094;49.948;11.574;2022-10-18T10:28:59;5.10;;;4.70;;
8102;SDS011;4094;49.948;11.574;2022-10-18T10:31:30;5.53;;;5.03;;
8102;SDS011;4094;49.948;11.574;2022-10-18T10:34:01;5.20;;;4.70;;
8102;SDS011;4094;49.948;11.574;2022-10-18T10:36:32;5.60;;;5.00;;
8102;SDS011;4094;49.948;11.574;2022-10-18T10:39:02;5.10;;;4.60;;
8102;SDS011;4094;49.948;11.574;2022-10-18T10:41:33;5.20;;;4.70;;
8102;SDS011;4094;49.948;11.574;2022-10-18T10:44:03;5.23;;;4.70;;
8102;SDS011;4094;49.948;11.574;2022-10-18T10:46:42;5.80;;;5.30;;
8102;SDS011;4094;49.948;11.574;2022-10-18T10:49:15;5.20;;;4.80;;
8102;SDS011;4094;49.948;11.574;2022-10-18T10:52:06;6.27;;;4.93;;
8102;SDS011;4094;49.948;11.574;2022-10-18T10:54:54;5.33;;;4.93;;
8102;SDS011;4094;49.948;11.574;2022-10-18T10:57:37;5.07;;;4.40;;
8102;SDS011;4094;49.948;11.574;2022-10-18T11:00:10;8.63;;;4.67;;
8102;SDS011;4094;49.948;11.574;2022-10-18T11:03:06;4.80;;;4.40;;
8102;SDS011;4094;49.948;11.574;2022-10-18T11:05:54;5.93;;;4.80;;
8102;SDS011;4094;49.948;11.574;2022-10-18T11:08:27;5.40;;;4.90;;
8102;SDS011;4094;49.948;11.574;2022-10-18T11:11:02;5.23;;;4.30;;
8102;SDS011;4094;49.948;11.574;2022-10-18T11:13:45;6.60;;;5.10;;
8102;SDS011;4094;49.948;11.574;2022-10-18T11:16:40;5.50;;;4.33;;
8102;SDS011;4094;49.948;11.574;2022-10-18T11:19:27;5.77;;;4.40;;
8102;SDS011;4094;49.948;11.574;2022-10-18T11:22:02;5.13;;;4.63;;
8102;SDS011;4094;49.948;11.574;2022-10-18T11:24:34;6.00;;;4.30;;
8102;SDS011;4094;49.948;11.574;2022-10-18T11:27:04;5.30;;;4.33;;
8102;SDS011;4094;49.948;11.574;2022-10-18T11:29:43;4.73;;;4.40;;
8102;SDS011;4094;49.948;11.574;2022-10-18T11:32:33;7.17;;;4.50;;
8102;SDS011;4094;49.948;11.574;2022-10-18T11:35:14;8.03;;;5.67;;
8102;SDS011;4094;49.948;11.574;2022-10-18T11:37:56;6.33;;;5.83;;
8102;SDS011;4094;49.948;11.574;2022-10-18T11:40:43;6.47;;;5.87;;
8102;SDS011;4094;49.948;11.574;2022-10-18T11:43:22;6.57;;;5.93;;
8102;SDS011;4094;49.948;11.574;2022-10-18T11:46:16;6.53;;;6.03;;
8102;SDS011;4094;49.948;11.574;2022-10-18T11:51:52;6.93;;;6.10;;
8102;SDS011;4094;49.948;11.574;2022-10-18T11:54:40;7.83;;;6.43;;
8102;SDS011;4094;49.948;11.574;2022-10-18T11:57:24;6.60;;;6.10;;
8102;SDS011;4094;49.948;11.574;2022-10-18T12:00:12;7.13;;;6.43;;
8102;SDS011;4094;49.948;11.574;2022-10-18T12:03:06;8.23;;;6.20;;
8102;SDS011;4094;49.948;11.574;2022-10-18T12:05:51;7.17;;;6.40;;
8102;SDS011;4094;49.948;11.574;2022-10-18T12:08:24;6.70;;;6.10;;
8102;SDS011;4094;49.948;11.574;2022-10-18T12:10:57;6.93;;;6.27;;
8102;SDS011;4094;49.948;11.574;2022-10-18T12:13:34;6.93;;;6.33;;
8102;SDS011;4094;49.948;11.574;2022-10-18T12:16:06;7.17;;;6.50;;
8102;SDS011;4094;49.948;11.574;2022-10-18T12:18:40;9.57;;;6.30;;
8102;SDS011;4094;49.948;11.574;2022-10-18T12:21:18;6.57;;;5.97;;
8102;SDS011;4094;49.948;11.574;2022-10-18T12:23:53;6.27;;;5.67;;
8102;SDS011;4094;49.948;11.574;2022-10-18T12:26:25;6.80;;;6.20;;
8102;SDS011;4094;49.948;11.574;2022-10-18T12:28:58;17.00;;;12.57;;
8102;SDS011;4094;49.948;11.574;2022-10-18T12:31:33;17.87;;;13.30;;
8102;SDS011;4094;49.948;11.574;2022-10-18T12:34:17;19.07;;;15.53;;
8102;SDS011;4094;49.948;11.574;2022-10-18T12:37:03;18.57;;;13.67;;
8102;SDS011;4094;49.948;11.574;2022-10-18T12:39:49;12.13;;;10.90;;
8102;SDS011;4094;49.948;11.574;2022-10-18T12:42:39;8.83;;;7.93;;
8102;SDS011;4094;49.948;11.574;2022-10-18T12:45:19;8.90;;;8.20;;
8102;SDS011;4094;49.948;11.574;2022-10-18T12:47:57;11.77;;;7.50;;
8102;SDS011;4094;49.948;11.574;2022-10-18T12:50:29;15.63;;;11.30;;
8102;SDS011;4094;49.948;11.574;2022-10-18T12:53:04;14.67;;;10.63;;
8102;SDS011;4094;49.948;11.574;2022-10-18T12:55:43;14.23;;;11.03;;
8102;SDS011;4094;49.948;11.574;2022-10-18T13:01:04;10.30;;;9.30;;
8102;SDS011;4094;49.948;11.574;2022-10-18T13:03:38;12.37;;;8.77;;
8102;SDS011;4094;49.948;11.574;2022-10-18T13:06:26;8.40;;;7.60;;
8102;SDS011;4094;49.948;11.574;2022-10-18T13:09:36;8.67;;;7.33;;
8102;SDS011;4094;49.948;11.574;2022-10-18T13:15:15;8.50;;;7.80;;
8102;SDS011;4094;49.948;11.574;2022-10-18T13:18:03;7.57;;;6.87;;
8102;SDS011;4094;49.948;11.574;2022-10-18T13:20:42;7.20;;;6.70;;
8102;SDS011;4094;49.948;11.574;2022-10-18T13:23:54;7.23;;;6.63;;
8102;SDS011;4094;49.948;11.574;2022-10-18T13:26:37;7.23;;;6.53;;
8102;SDS011;4094;49.948;11.574;2022-10-18T13:29:44;7.67;;;6.63;;
8102;SDS011;4094;49.948;11.574;2022-10-18T13:32:23;6.67;;;6.07;;
8102;SDS011;4094;49.948;11.574;2022-10-18T13:34:58;6.50;;;5.90;;
8102;SDS011;4094;49.948;11.574;2022-10-18T13:37:27;6.83;;;6.17;;
8102;SDS011;4094;49.948;11.574;2022-10-18T13:42:43;6.00;;;5.50;;
8102;SDS011;4094;49.948;11.574;2022-10-18T13:57:16;7.57;;;6.60;;
8102;SDS011;4094;49.948;11.574;2022-10-18T14:00:05;7.87;;;6.17;;
8102;SDS011;4094;49.948;11.574;2022-10-18T14:06:14;6.90;;;5.47;;
8102;SDS011;4094;49.948;11.574;2022-10-18T14:08:47;5.83;;;5.43;;
8102;SDS011;4094;49.948;11.574;2022-10-18T14:11:23;6.87;;;5.60;;
8102;SDS011;4094;49.948;11.574;2022-10-18T14:14:03;6.37;;;5.77;;
8102;SDS011;4094;49.948;11.574;2022-10-18T14:16:42;6.10;;;5.60;;
8102;SDS011;4094;49.948;11.574;2022-10-18T14:19:16;6.30;;;5.80;;
8102;SDS011;4094;49.948;11.574;2022-10-18T14:21:52;5.97;;;5.47;;
8102;SDS011;4094;49.948;11.574;2022-10-18T14:24:24;6.37;;;5.50;;
8102;SDS011;4094;49.948;11.574;2022-10-18T14:27:08;7.20;;;5.90;;
8102;SDS011;4094;49.948;11.574;2022-10-18T14:29:39;6.87;;;6.27;;
8102;SDS011;4094;49.948;11.574;2022-10-18T14:32:10;7.17;;;6.47;;
8102;SDS011;4094;49.948;11.574;2022-10-18T14:34:48;6.80;;;6.10;;
8102;SDS011;4094;49.948;11.574;2022-10-18T14:37:20;7.33;;;6.57;;
8102;SDS011;4094;49.948;11.574;2022-10-18T14:39:54;6.50;;;6.00;;
8102;SDS011;4094;49.948;11.574;2022-10-18T14:42:24;6.73;;;6.20;;
8102;SDS011;4094;49.948;11.574;2022-10-18T14:44:55;6.97;;;6.27;;
8102;SDS011;4094;49.948;11.574;2022-10-18T14:47:27;5.63;;;5.13;;
8102;SDS011;4094;49.948;11.574;2022-10-18T14:49:57;5.77;;;5.37;;
8102;SDS011;4094;49.948;11.574;2022-10-18T14:52:29;5.33;;;4.90;;
8102;SDS011;4094;49.948;11.574;2022-10-18T14:55:02;5.87;;;5.37;;
8102;SDS011;4094;49.948;11.574;2022-10-18T14:57:32;6.17;;;5.30;;
8102;SDS011;4094;49.948;11.574;2022-10-18T15:00:03;5.50;;;5.10;;
8102;SDS011;4094;49.948;11.574;2022-10-18T15:02:38;5.53;;;5.03;;
8102;SDS011;4094;49.948;11.574;2022-10-18T15:05:09;6.97;;;5.63;;
8102;SDS011;4094;49.948;11.574;2022-10-18T15:07:46;5.90;;;5.37;;
8102;SDS011;4094;49.948;11.574;2022-10-18T15:10:17;5.90;;;5.40;;
8102;SDS011;4094;49.948;11.574;2022-10-18T15:12:49;6.73;;;6.03;;
8102;SDS011;4094;49.948;11.574;2022-10-18T15:15:35;7.77;;;7.07;;
8102;SDS011;4094;49.948;11.574;2022-10-18T15:18:12;9.80;;;8.80;;
8102;SDS011;4094;49.948;11.574;2022-10-18T15:23:36;8.33;;;7.60;;
8102;SDS011;4094;49.948;11.574;2022-10-18T15:26:07;7.10;;;6.50;;
8102;SDS011;4094;49.948;11.574;2022-10-18T15:28:39;7.10;;;6.40;;
8102;SDS011;4094;49.948;11.574;2022-10-18T15:31:20;7.13;;;5.70;;
8102;SDS011;4094;49.948;11.574;2022-10-18T15:34:06;7.80;;;6.40;;
8102;SDS011;4094;49.948;11.574;2022-10-18T15:36:37;5.83;;;5.40;;
8102;SDS011;4094;49.948;11.574;2022-10-18T15:39:07;6.50;;;5.83;;
8102;SDS011;4094;49.948;11.574;2022-10-18T15:41:43;6.63;;;5.97;;
8102;SDS011;4094;49.948;11.574;2022-10-18T15:44:20;6.10;;;5.60;;
8102;SDS011;4094;49.948;11.574;2022-10-18T15:46:52;9.30;;;5.63;;
8102;SDS011;4094;49.948;11.574;2022-10-18T15:49:47;10.47;;;5.50;;
8102;SDS011;4094;49.948;11.574;2022-10-18T15:52:35;6.33;;;5.73;;
8102;SDS011;4094;49.948;11.574;2022-10-18T15:58:15;6.90;;;5.50;;
8102;SDS011;4094;49.948;11.574;2022-10-18T16:00:47;5.80;;;5.30;;
8102;SDS011;4094;49.948;11.574;2022-10-18T16:03:17;5.57;;;5.00;;
8102;SDS011;4094;49.948;11.574;2022-10-18T16:05:50;6.17;;;5.67;;
8102;SDS011;4094;49.948;11.574;2022-10-18T16:08:24;6.43;;;5.77;;
8102;SDS011;4094;49.948;11.574;2022-10-18T16:10:55;5.93;;;5.43;;